Current Weather

Union County

Marysville, Ohio (KMRT)

Report from: Friday, April 19, 2024 4:55 AM EDT
Current time: Friday, April 19, 2024 5:11 AM EDT

Nearby weather – Weather history – Daily summaries
Weather forecast

Temperature14.1°C (57.4°F)
Dew point7.7°C (45.9°F)
Winds 4 kts (2.1 m/s, 4.6 mph) South-Southwest (210°)
Visibility10 mi. (16.1 km)
Clouds Sky clear
Altimeter29.84 in.Hg (1010 mB)
Precipitiation0.01 in. (0 mm)
Precip last 3 hours0.02 in. (1 mm)
Relative humidity65 %
Density altitude138 ft. (42 m)
Remarks Fully automated report
Automated weather observing station with precipitation discriminator
Flight conditions Visual Meteorological Conditions
Raw dataKMRT 190855Z AUTO 21004KT 10SM CLR 14/08 A2984 RMK AO2 P0001 60002 T01410077
An error has occurred. This application may no longer respond until reloaded. Reload 🗙